< Typhoon 196629 1966 Season Typhoon 196631 >
Typhoon 196630 (LORNA)
General InformationTrack Information on Google Maps || Disaster Info.ResourceGoogle EarthGE AnimationAtom FeedGeoJSON
Detalied Best Track (Time Zone = UTC)
Year Month Day Hour Lat. Long. Pressure (hPa) Wind (kt) Class Image Chart
1966 10 26 06 10.0 137.0 1002 0 2 -- Chart
1966 10 26 12 10.5 137.5 1002 0 2 -- Chart
1966 10 26 18 11.1 137.8 1002 0 2 -- Chart
1966 10 27 00 11.4 137.8 1002 0 2 -- Chart
1966 10 27 06 11.7 137.7 1002 0 2 -- Chart
1966 10 27 12 12.1 137.6 1002 0 2 -- Chart
1966 10 27 18 12.5 137.5 1002 0 2 -- Chart
1966 10 28 00 13.1 137.1 1000 0 2 -- Chart
1966 10 28 06 13.8 136.5 1000 0 2 -- Chart
1966 10 28 12 14.6 135.7 1000 0 2 -- Chart
1966 10 28 18 15.3 134.6 1000 0 2 -- Chart
1966 10 29 00 15.7 133.4 1000 0 2 -- Chart
1966 10 29 06 15.8 132.1 998 0 2 -- Chart
1966 10 29 12 15.8 130.6 998 0 2 -- Chart
1966 10 29 18 15.7 129.0 996 0 9 -- Chart
1966 10 30 00 15.8 127.5 994 0 9 -- Chart
1966 10 30 06 16.7 126.7 992 0 9 -- Chart
1966 10 30 12 16.7 125.6 990 0 9 -- Chart
1966 10 30 18 16.6 124.4 992 0 9 -- Chart
1966 10 31 00 17.0 123.4 990 0 9 -- Chart
1966 10 31 06 17.4 122.5 990 0 9 -- Chart
1966 10 31 12 17.8 121.8 994 0 9 -- Chart
1966 10 31 18 18.0 121.2 996 0 9 -- Chart
1966 11 1 00 18.2 121.0 998 0 9 -- Chart
1966 11 1 06 19.0 120.8 998 0 9 -- Chart
1966 11 1 12 19.0 121.3 1000 0 9 -- Chart
1966 11 1 18 18.7 121.3 1000 0 9 -- Chart
1966 11 2 00 18.5 121.3 1000 0 9 -- Chart
1966 11 2 06 18.3 121.6 1000 0 9 -- Chart
1966 11 2 12 18.2 122.1 1002 0 9 -- Chart
1966 11 2 18 18.0 122.5 1000 0 2 -- Chart
1966 11 3 00 18.4 123.0 1000 0 2 -- Chart
1966 11 3 06 18.3 123.5 1000 0 2 -- Chart
1966 11 3 12 18.0 124.0 1002 0 2 -- Chart
1966 11 3 18 18.0 125.0 1004 0 2 -- Chart
1966 11 4 00 18.0 126.0 1008 0 2 -- Chart
Japan Meteorological Agency Best Track Data | Correction Date : 1989-06-01
< Typhoon 196629 1966 Season Typhoon 196631 >

Help